Time;durP1;ratioP1;P1;durP2;ratioP2;P2;SDS_P1;SDS_P2;PMS_P1;PMS_P2;Temp;Humidity;BMP_temperature;BMP_pressure;BME280_temperature;BME280_humidity;BME280_pressure;Samples;Min_cycle;Max_cycle;Signal;HPM_P1;HPM_P2
2022/01/05 00:00:47;;;;;;;3.80;2.30;;;;;;;;;;5072990;28;20452;-52
2022/01/05 00:03:13;;;;;;;2.80;1.93;;;;;;;;;;5064304;28;20429;-52
2022/01/05 00:05:39;;;;;;;1.70;1.37;;;;;;;;;;5069349;28;20479;-51
2022/01/05 00:08:05;;;;;;;11.37;5.63;;;;;;;;;;5063348;28;20445;-52
2022/01/05 00:10:31;;;;;;;3.80;2.87;;;;;;;;;;5058240;28;20464;-52
2022/01/05 00:12:57;;;;;;;1.20;1.10;;;;;;;;;;5073337;28;20564;-52
2022/01/05 00:15:23;;;;;;;1.20;1.00;;;;;;;;;;5059512;28;20186;-51
2022/01/05 00:17:49;;;;;;;1.80;1.17;;;;;;;;;;5078438;28;21027;-52
2022/01/05 00:20:15;;;;;;;0.87;0.70;;;;;;;;;;5082535;28;20440;-52
2022/01/05 00:22:41;;;;;;;1.43;0.90;;;;;;;;;;5080220;28;20501;-51
2022/01/05 00:25:07;;;;;;;1.27;0.80;;;;;;;;;;5060647;28;20538;-52
2022/01/05 00:27:33;;;;;;;1.10;0.90;;;;;;;;;;5088702;28;20482;-52
2022/01/05 00:29:59;;;;;;;1.40;0.90;;;;;;;;;;5076577;28;20597;-52
2022/01/05 00:32:25;;;;;;;1.00;0.80;;;;;;;;;;5080294;28;20531;-52
2022/01/05 00:34:52;;;;;;;1.17;0.87;;;;;;;;;;5039940;28;20444;-52
2022/01/05 00:37:18;;;;;;;1.30;1.10;;;;;;;;;;5079111;28;20436;-52
2022/01/05 00:39:44;;;;;;;1.17;0.70;;;;;;;;;;5072344;28;20443;-52
2022/01/05 00:42:10;;;;;;;1.57;0.80;;;;;;;;;;5083141;28;20431;-52
2022/01/05 00:44:36;;;;;;;1.00;0.80;;;;;;;;;;5038437;28;20477;-53
2022/01/05 00:47:02;;;;;;;1.70;0.90;;;;;;;;;;5086899;28;20480;-52
2022/01/05 00:49:28;;;;;;;0.90;0.80;;;;;;;;;;5079525;28;20435;-52
2022/01/05 00:51:54;;;;;;;1.20;0.97;;;;;;;;;;5080197;28;20960;-53
2022/01/05 00:54:19;;;;;;;1.13;0.70;;;;;;;;;;5075376;28;20994;-52
2022/01/05 00:56:45;;;;;;;1.73;1.10;;;;;;;;;;5081429;28;20429;-52
2022/01/05 00:59:11;;;;;;;0.90;0.67;;;;;;;;;;5073475;28;20523;-52
2022/01/05 01:01:37;;;;;;;0.90;0.60;;;;;;;;;;5090688;28;20468;-52
2022/01/05 01:04:04;;;;;;;1.30;0.70;;;;;;;;;;5060698;28;20436;-52
2022/01/05 01:06:31;;;;;;;1.23;0.63;;;;;;;;;;5077267;28;20479;-52
2022/01/05 01:08:57;;;;;;;0.90;0.80;;;;;;;;;;5074259;28;20432;-52
2022/01/05 01:11:22;;;;;;;0.87;0.67;;;;;;;;;;5078962;28;20439;-52
2022/01/05 01:13:48;;;;;;;0.90;0.70;;;;;;;;;;5036944;28;20448;-52
2022/01/05 01:16:14;;;;;;;0.80;0.60;;;;;;;;;;5081303;28;20440;-52
2022/01/05 01:18:40;;;;;;;1.27;0.80;;;;;;;;;;5072687;28;20436;-53
2022/01/05 01:21:07;;;;;;;0.90;0.60;;;;;;;;;;5078561;28;20449;-52
2022/01/05 01:23:33;;;;;;;0.80;0.50;;;;;;;;;;5036480;28;20650;-52
2022/01/05 01:25:59;;;;;;;1.00;0.80;;;;;;;;;;5079377;28;20703;-51
2022/01/05 01:28:25;;;;;;;1.40;0.87;;;;;;;;;;5071097;28;20877;-52
2022/01/05 01:30:51;;;;;;;0.80;0.60;;;;;;;;;;5075816;28;20535;-51
2022/01/05 01:33:18;;;;;;;1.20;0.90;;;;;;;;;;5062016;28;20509;-52
2022/01/05 01:35:44;;;;;;;0.90;0.70;;;;;;;;;;5068694;28;20444;-52
2022/01/05 01:38:10;;;;;;;0.90;0.70;;;;;;;;;;5068572;28;22857;-52
2022/01/05 01:40:36;;;;;;;0.83;0.60;;;;;;;;;;5067936;28;20449;-52
2022/01/05 01:43:02;;;;;;;0.90;0.60;;;;;;;;;;5067477;28;20445;-51
2022/01/05 01:45:27;;;;;;;1.00;0.70;;;;;;;;;;5070855;28;20476;-52
2022/01/05 01:47:53;;;;;;;0.90;0.73;;;;;;;;;;5079415;28;20909;-52
2022/01/05 01:50:19;;;;;;;1.00;0.70;;;;;;;;;;5047953;28;20533;-52
2022/01/05 01:52:45;;;;;;;1.10;0.57;;;;;;;;;;5080542;28;20498;-51
2022/01/05 01:55:11;;;;;;;0.80;0.60;;;;;;;;;;5079826;28;20794;-51
2022/01/05 01:57:39;;;;;;;1.10;0.70;;;;;;;;;;5083462;28;20443;-51
2022/01/05 02:00:05;;;;;;;0.80;0.57;;;;;;;;;;5076937;28;20441;-52
2022/01/05 02:02:31;;;;;;;1.23;0.70;;;;;;;;;;5083355;28;20463;-51
2022/01/05 02:05:00;;;;;;;0.90;0.77;;;;;;;;;;5058729;28;20519;-51
2022/01/05 02:07:26;;;;;;;0.80;0.50;;;;;;;;;;5077584;28;20503;-51
2022/01/05 02:09:52;;;;;;;1.03;0.70;;;;;;;;;;5085319;28;20429;-51
2022/01/05 02:12:18;;;;;;;2.00;1.00;;;;;;;;;;5049446;28;20478;-51
2022/01/05 02:14:44;;;;;;;2.70;0.80;;;;;;;;;;5062610;28;20519;-51
2022/01/05 02:17:19;;;;;;;1.17;0.70;;;;;;;;;;5069962;28;20423;-51
2022/01/05 02:19:45;;;;;;;1.37;0.87;;;;;;;;;;5076074;28;20466;-51
2022/01/05 02:22:11;;;;;;;1.00;0.60;;;;;;;;;;5072192;28;20440;-53
2022/01/05 02:24:37;;;;;;;0.93;0.60;;;;;;;;;;5048719;28;20469;-50
2022/01/05 02:27:03;;;;;;;0.90;0.67;;;;;;;;;;5086022;28;20475;-51
2022/01/05 02:29:29;;;;;;;0.90;0.60;;;;;;;;;;5077051;28;20437;-52
2022/01/05 02:31:57;;;;;;;0.80;0.53;;;;;;;;;;5081550;28;20842;-51
2022/01/05 02:34:22;;;;;;;1.17;0.60;;;;;;;;;;5075309;28;20491;-52
2022/01/05 02:36:48;;;;;;;0.83;0.60;;;;;;;;;;5069022;28;21182;-51
2022/01/05 02:39:14;;;;;;;1.00;0.60;;;;;;;;;;5075551;28;20186;-52
2022/01/05 02:41:40;;;;;;;1.43;0.93;;;;;;;;;;5079953;28;20444;-51
2022/01/05 02:44:06;;;;;;;1.30;0.80;;;;;;;;;;5055885;28;20432;-52
2022/01/05 02:46:34;;;;;;;1.20;0.93;;;;;;;;;;5080978;28;20858;-52
2022/01/05 02:49:02;;;;;;;1.23;0.80;;;;;;;;;;5056791;28;20451;-52
2022/01/05 02:51:28;;;;;;;1.07;0.90;;;;;;;;;;5081375;28;20624;-51
2022/01/05 02:53:54;;;;;;;1.30;0.70;;;;;;;;;;5075262;28;20791;-52
2022/01/05 02:56:20;;;;;;;1.07;0.97;;;;;;;;;;5080555;28;20444;-51
2022/01/05 02:58:46;;;;;;;1.10;1.00;;;;;;;;;;5041307;28;20564;-51
2022/01/05 03:01:12;;;;;;;1.23;1.00;;;;;;;;;;5082195;28;20443;-52
2022/01/05 03:03:38;;;;;;;1.23;0.87;;;;;;;;;;5074884;28;20174;-51
2022/01/05 03:06:04;;;;;;;1.00;0.90;;;;;;;;;;5067973;28;20483;-51
2022/01/05 03:08:30;;;;;;;1.97;0.80;;;;;;;;;;5055659;28;20903;-51
2022/01/05 03:10:56;;;;;;;1.00;0.70;;;;;;;;;;5080147;28;20487;-51
2022/01/05 03:13:23;;;;;;;1.00;0.73;;;;;;;;;;5057849;28;21055;-51
2022/01/05 03:15:50;;;;;;;1.30;1.00;;;;;;;;;;5082093;28;20444;-51
2022/01/05 03:18:16;;;;;;;2.00;1.03;;;;;;;;;;5071012;28;20496;-51
2022/01/05 03:20:41;;;;;;;1.70;1.13;;;;;;;;;;5078841;28;20463;-52
2022/01/05 03:23:08;;;;;;;1.40;0.93;;;;;;;;;;5079992;28;20519;-51
2022/01/05 03:25:34;;;;;;;3.87;0.90;;;;;;;;;;5085539;28;20531;-51
2022/01/05 03:27:59;;;;;;;1.20;0.90;;;;;;;;;;5046625;28;20903;-52
2022/01/05 03:30:26;;;;;;;1.13;0.83;;;;;;;;;;5093561;28;20428;-52
2022/01/05 03:35:25;;;;;;;1.20;0.80;;;;;;;;;;5089986;28;20436;-52
2022/01/05 03:37:51;;;;;;;1.10;0.70;;;;;;;;;;5065798;28;21052;-52
2022/01/05 03:40:16;;;;;;;1.20;0.93;;;;;;;;;;5091747;28;20584;-52
2022/01/05 03:42:42;;;;;;;1.00;0.70;;;;;;;;;;5067796;28;20523;-52
2022/01/05 03:45:09;;;;;;;1.07;0.67;;;;;;;;;;5076468;28;20246;-52
2022/01/05 03:47:34;;;;;;;0.90;0.60;;;;;;;;;;5076986;28;21307;-52
2022/01/05 03:50:00;;;;;;;1.17;0.73;;;;;;;;;;5078681;28;20436;-51
2022/01/05 03:52:26;;;;;;;1.00;0.90;;;;;;;;;;5075385;28;20448;-53
2022/01/05 03:54:52;;;;;;;2.10;0.83;;;;;;;;;;5078092;28;20194;-51
2022/01/05 03:57:18;;;;;;;1.10;0.80;;;;;;;;;;5070723;28;20508;-56
2022/01/05 03:59:44;;;;;;;3.37;0.97;;;;;;;;;;5050044;28;20479;-51
2022/01/05 04:02:10;;;;;;;1.10;0.70;;;;;;;;;;5076165;28;20443;-51
2022/01/05 04:04:36;;;;;;;1.63;0.80;;;;;;;;;;5073930;28;21202;-51
2022/01/05 04:07:03;;;;;;;2.23;1.07;;;;;;;;;;5082093;28;20463;-50
2022/01/05 04:09:29;;;;;;;2.60;1.47;;;;;;;;;;5075635;28;20520;-51
2022/01/05 04:11:55;;;;;;;3.50;1.90;;;;;;;;;;5081910;28;20451;-51
2022/01/05 04:14:21;;;;;;;1.63;1.03;;;;;;;;;;5075518;28;20432;-52
2022/01/05 04:16:47;;;;;;;1.27;0.90;;;;;;;;;;5089881;28;20425;-51
2022/01/05 04:19:13;;;;;;;1.30;1.10;;;;;;;;;;5063210;28;20446;-51
2022/01/05 04:21:39;;;;;;;1.03;0.70;;;;;;;;;;5093574;28;20489;-52
2022/01/05 04:24:05;;;;;;;1.00;0.70;;;;;;;;;;5085766;28;20526;-51
2022/01/05 04:26:31;;;;;;;1.67;0.87;;;;;;;;;;5093805;28;20494;-51
2022/01/05 04:28:57;;;;;;;1.20;0.60;;;;;;;;;;5047556;28;20954;-51
2022/01/05 04:31:23;;;;;;;0.90;0.70;;;;;;;;;;5089768;28;22759;-51
2022/01/05 04:33:49;;;;;;;0.80;0.50;;;;;;;;;;5081512;28;21201;-51
2022/01/05 04:36:15;;;;;;;1.27;1.13;;;;;;;;;;5079516;28;21434;-51
2022/01/05 04:38:41;;;;;;;0.80;0.60;;;;;;;;;;5077566;28;20436;-51
2022/01/05 04:41:07;;;;;;;1.00;0.67;;;;;;;;;;5083722;28;20508;-51
2022/01/05 04:43:33;;;;;;;1.87;0.70;;;;;;;;;;5075972;28;20933;-52
2022/01/05 04:45:59;;;;;;;1.20;1.00;;;;;;;;;;5073582;28;20479;-51
2022/01/05 04:48:24;;;;;;;0.93;0.67;;;;;;;;;;5061484;28;20442;-51
2022/01/05 04:50:50;;;;;;;1.10;0.70;;;;;;;;;;5065759;28;20454;-51
2022/01/05 04:53:16;;;;;;;1.10;0.90;;;;;;;;;;5083376;28;20428;-50
2022/01/05 04:55:42;;;;;;;1.40;1.00;;;;;;;;;;5083609;28;20451;-51
2022/01/05 04:58:08;;;;;;;0.90;0.70;;;;;;;;;;5077619;28;20443;-51
2022/01/05 05:00:34;;;;;;;1.00;0.70;;;;;;;;;;5047371;28;22354;-52
2022/01/05 05:03:00;;;;;;;1.20;0.70;;;;;;;;;;5079789;28;20452;-51
2022/01/05 05:05:26;;;;;;;1.17;0.80;;;;;;;;;;5071974;28;21252;-51
2022/01/05 05:07:52;;;;;;;0.90;0.73;;;;;;;;;;5078029;28;20440;-50
2022/01/05 05:10:18;;;;;;;0.80;0.57;;;;;;;;;;5078564;28;20436;-50
2022/01/05 05:12:44;;;;;;;1.00;0.70;;;;;;;;;;5076925;28;20520;-51
2022/01/05 05:15:10;;;;;;;1.00;0.67;;;;;;;;;;5072969;28;20448;-51
2022/01/05 05:17:36;;;;;;;0.90;0.60;;;;;;;;;;5080580;28;20454;-51
2022/01/05 05:20:02;;;;;;;1.70;0.90;;;;;;;;;;5055461;28;20469;-52
2022/01/05 05:22:28;;;;;;;1.10;0.90;;;;;;;;;;5075844;28;20577;-51
2022/01/05 05:24:54;;;;;;;0.90;0.70;;;;;;;;;;5075188;28;20538;-50
2022/01/05 05:27:20;;;;;;;1.20;0.80;;;;;;;;;;5077534;28;20480;-50
2022/01/05 05:29:46;;;;;;;2.60;1.27;;;;;;;;;;5034660;28;20463;-51
2022/01/05 05:32:12;;;;;;;1.73;1.20;;;;;;;;;;5077410;28;20447;-52
2022/01/05 05:34:38;;;;;;;1.13;0.90;;;;;;;;;;5079677;28;20428;-51
2022/01/05 05:37:04;;;;;;;2.03;0.80;;;;;;;;;;5082792;28;21145;-51
2022/01/05 05:39:31;;;;;;;2.27;1.50;;;;;;;;;;5082764;28;20439;-50
2022/01/05 05:41:57;;;;;;;1.20;1.10;;;;;;;;;;5092902;28;21031;-51
2022/01/05 05:44:23;;;;;;;1.10;0.90;;;;;;;;;;5076590;28;20432;-51
2022/01/05 05:46:49;;;;;;;1.17;0.80;;;;;;;;;;5080904;28;20558;-53
2022/01/05 05:49:15;;;;;;;1.90;1.10;;;;;;;;;;5076819;28;22526;-52
2022/01/05 05:51:41;;;;;;;1.20;0.80;;;;;;;;;;5081930;28;21370;-52
2022/01/05 05:54:07;;;;;;;1.17;0.90;;;;;;;;;;5051494;28;20439;-51
2022/01/05 05:56:33;;;;;;;0.97;0.80;;;;;;;;;;5083821;28;20436;-51
2022/01/05 05:58:58;;;;;;;2.20;1.20;;;;;;;;;;5079962;28;20972;-51
2022/01/05 06:01:24;;;;;;;1.70;1.50;;;;;;;;;;5081875;28;20867;-51
2022/01/05 06:03:50;;;;;;;2.73;1.30;;;;;;;;;;5041636;28;20444;-51
2022/01/05 06:06:16;;;;;;;1.80;1.17;;;;;;;;;;5081469;28;20480;-51
2022/01/05 06:08:42;;;;;;;2.10;1.13;;;;;;;;;;5077753;28;20436;-52
2022/01/05 06:11:08;;;;;;;11.40;1.90;;;;;;;;;;5085141;28;20174;-51
2022/01/05 06:13:34;;;;;;;4.23;1.07;;;;;;;;;;5064486;28;20701;-51
2022/01/05 06:16:00;;;;;;;1.00;0.90;;;;;;;;;;5082460;28;20451;-52
2022/01/05 06:18:26;;;;;;;2.37;1.57;;;;;;;;;;5092232;28;20439;-52
2022/01/05 06:20:52;;;;;;;2.23;1.00;;;;;;;;;;5082953;28;20451;-51
2022/01/05 06:23:18;;;;;;;2.40;0.83;;;;;;;;;;5069954;28;20517;-51
2022/01/05 06:25:44;;;;;;;1.67;1.03;;;;;;;;;;5069449;28;20217;-52
2022/01/05 06:28:11;;;;;;;2.43;0.93;;;;;;;;;;5078722;28;20439;-51
2022/01/05 06:30:38;;;;;;;1.30;1.20;;;;;;;;;;5074696;28;20443;-52
2022/01/05 06:33:04;;;;;;;1.27;1.10;;;;;;;;;;5075176;28;20424;-51
2022/01/05 06:35:30;;;;;;;1.93;1.20;;;;;;;;;;5061133;28;21763;-52
2022/01/05 06:37:56;;;;;;;1.47;0.93;;;;;;;;;;5081097;28;20569;-51
2022/01/05 06:40:22;;;;;;;1.60;1.23;;;;;;;;;;5038377;28;20961;-51
2022/01/05 06:42:48;;;;;;;1.70;1.30;;;;;;;;;;5081491;28;20799;-51
2022/01/05 06:45:14;;;;;;;4.37;1.43;;;;;;;;;;5073375;28;20440;-51
2022/01/05 06:47:40;;;;;;;1.40;1.10;;;;;;;;;;5079219;28;20451;-52
2022/01/05 06:50:06;;;;;;;3.80;1.17;;;;;;;;;;5076315;28;20512;-52
2022/01/05 06:52:32;;;;;;;3.20;1.40;;;;;;;;;;5081315;28;20509;-51
2022/01/05 06:54:58;;;;;;;4.40;1.60;;;;;;;;;;5057739;28;20929;-52
2022/01/05 06:57:24;;;;;;;1.70;1.40;;;;;;;;;;5080544;28;20208;-52
2022/01/05 06:59:50;;;;;;;6.60;1.87;;;;;;;;;;5076698;28;20455;-52
2022/01/05 07:02:16;;;;;;;1.60;1.27;;;;;;;;;;5075569;28;20476;-51
2022/01/05 07:04:42;;;;;;;1.30;1.20;;;;;;;;;;5079180;28;20900;-51
2022/01/05 07:07:08;;;;;;;2.70;1.63;;;;;;;;;;5080017;28;21079;-52
2022/01/05 07:09:34;;;;;;;1.90;1.70;;;;;;;;;;5037326;28;20441;-52
2022/01/05 07:12:00;;;;;;;1.57;1.47;;;;;;;;;;5075116;28;20437;-51
2022/01/05 07:14:26;;;;;;;1.77;1.40;;;;;;;;;;5060188;28;20506;-52
2022/01/05 07:16:52;;;;;;;2.40;1.63;;;;;;;;;;5077348;28;20454;-52
2022/01/05 07:19:20;;;;;;;1.90;1.67;;;;;;;;;;5075844;28;20455;-51
2022/01/05 07:21:46;;;;;;;1.80;1.50;;;;;;;;;;5081439;28;20659;-51
2022/01/05 07:24:16;;;;;;;1.80;1.60;;;;;;;;;;5052348;28;20440;-52
2022/01/05 07:26:42;;;;;;;2.60;1.80;;;;;;;;;;5080656;28;20484;-52
2022/01/05 07:29:08;;;;;;;2.73;1.63;;;;;;;;;;5073998;28;21038;-51
2022/01/05 07:31:34;;;;;;;2.07;1.43;;;;;;;;;;5080068;28;21353;-51
2022/01/05 07:34:00;;;;;;;2.63;1.53;;;;;;;;;;5054949;28;21400;-51
2022/01/05 07:36:26;;;;;;;2.50;1.87;;;;;;;;;;5079188;28;20480;-52
2022/01/05 07:38:52;;;;;;;4.13;1.90;;;;;;;;;;5075319;28;20435;-51
2022/01/05 07:41:17;;;;;;;2.23;2.03;;;;;;;;;;5090615;28;21369;-51
2022/01/05 07:43:43;;;;;;;2.40;1.97;;;;;;;;;;5051521;28;20440;-53
2022/01/05 07:46:09;;;;;;;1.73;1.60;;;;;;;;;;5089006;28;20218;-52
2022/01/05 07:48:35;;;;;;;3.00;2.20;;;;;;;;;;5085934;28;20440;-52
2022/01/05 07:51:01;;;;;;;4.30;2.17;;;;;;;;;;5080735;28;20472;-52
2022/01/05 07:53:27;;;;;;;1.97;1.87;;;;;;;;;;5066934;28;20444;-51
2022/01/05 07:55:53;;;;;;;11.33;2.30;;;;;;;;;;5073078;28;20448;-52
2022/01/05 07:58:21;;;;;;;2.90;2.37;;;;;;;;;;5075941;28;20488;-57
2022/01/05 08:00:47;;;;;;;3.13;1.97;;;;;;;;;;5080585;28;20447;-51
2022/01/05 08:03:13;;;;;;;2.47;2.00;;;;;;;;;;5078060;28;23866;-51
2022/01/05 08:05:39;;;;;;;4.70;2.50;;;;;;;;;;5062024;28;21079;-51
2022/01/05 08:08:05;;;;;;;1.67;1.40;;;;;;;;;;5082033;28;21443;-51
2022/01/05 08:10:31;;;;;;;4.30;1.93;;;;;;;;;;5078345;28;20594;-51
2022/01/05 08:12:57;;;;;;;4.80;2.13;;;;;;;;;;5081512;28;20439;-51
2022/01/05 08:15:23;;;;;;;2.57;2.37;;;;;;;;;;5058257;28;20440;-51
2022/01/05 08:17:49;;;;;;;6.73;1.93;;;;;;;;;;5080297;28;20433;-50
2022/01/05 08:20:15;;;;;;;2.73;2.37;;;;;;;;;;5040616;28;20448;-51
2022/01/05 08:22:41;;;;;;;5.23;2.60;;;;;;;;;;5084439;28;20420;-50
2022/01/05 08:25:09;;;;;;;2.60;2.37;;;;;;;;;;5055085;28;20955;-52
2022/01/05 08:27:35;;;;;;;4.60;1.97;;;;;;;;;;5084563;28;20440;-52
2022/01/05 08:30:04;;;;;;;3.57;2.70;;;;;;;;;;5058877;28;21618;-52
2022/01/05 08:32:31;;;;;;;3.67;2.67;;;;;;;;;;5077936;28;20580;-51
2022/01/05 08:34:57;;;;;;;4.37;2.60;;;;;;;;;;5053334;28;20655;-51
2022/01/05 08:37:23;;;;;;;4.50;2.00;;;;;;;;;;5065988;28;20473;-50
2022/01/05 08:39:51;;;;;;;2.93;2.53;;;;;;;;;;5079005;28;20442;-51
2022/01/05 08:42:17;;;;;;;4.07;2.00;;;;;;;;;;5082918;28;20429;-51
2022/01/05 08:44:43;;;;;;;3.63;2.70;;;;;;;;;;5055570;28;20480;-51
2022/01/05 08:47:08;;;;;;;3.87;1.90;;;;;;;;;;5081527;28;22333;-52
2022/01/05 08:49:35;;;;;;;8.40;2.33;;;;;;;;;;5077167;28;20494;-51
2022/01/05 08:52:01;;;;;;;8.00;2.10;;;;;;;;;;5083080;28;20440;-52
2022/01/05 08:54:27;;;;;;;7.70;2.00;;;;;;;;;;5036337;28;20460;-51
2022/01/05 08:56:54;;;;;;;3.77;2.10;;;;;;;;;;5066209;28;20480;-50
2022/01/05 08:59:20;;;;;;;1.90;1.50;;;;;;;;;;5085693;28;20954;-51
2022/01/05 09:01:46;;;;;;;4.37;2.10;;;;;;;;;;5063180;28;20474;-51
2022/01/05 09:04:12;;;;;;;6.60;2.30;;;;;;;;;;5082759;28;20472;-51
2022/01/05 09:06:38;;;;;;;3.33;2.20;;;;;;;;;;5054602;28;20220;-50
2022/01/05 09:09:04;;;;;;;3.00;1.83;;;;;;;;;;5085628;28;20551;-51
2022/01/05 09:11:30;;;;;;;2.90;2.00;;;;;;;;;;5082146;28;20448;-52
2022/01/05 09:13:56;;;;;;;8.23;2.10;;;;;;;;;;5087987;28;20571;-51
2022/01/05 09:16:22;;;;;;;2.07;1.80;;;;;;;;;;5081408;28;20190;-52
2022/01/05 09:18:48;;;;;;;2.50;1.83;;;;;;;;;;5087779;28;20432;-51
2022/01/05 09:21:14;;;;;;;3.80;2.03;;;;;;;;;;5082558;28;21022;-52
2022/01/05 09:23:40;;;;;;;1.97;1.87;;;;;;;;;;5083672;28;20444;-52
2022/01/05 09:26:06;;;;;;;7.57;2.23;;;;;;;;;;5048431;28;20790;-52
2022/01/05 09:28:32;;;;;;;2.20;1.80;;;;;;;;;;5089286;28;20580;-51
2022/01/05 09:30:57;;;;;;;2.63;1.60;;;;;;;;;;5061627;28;20444;-52
2022/01/05 09:33:23;;;;;;;2.40;1.73;;;;;;;;;;5080647;28;20472;-52
2022/01/05 09:35:59;;;;;;;13.73;2.90;;;;;;;;;;5081455;28;20433;-52
2022/01/05 09:43:56;;;;;;;4.33;2.43;;;;;;;;;;5072612;28;20451;-51
2022/01/05 09:46:44;;;;;;;2.87;1.80;;;;;;;;;;5060672;28;20484;-51
2022/01/05 09:49:13;;;;;;;4.10;1.97;;;;;;;;;;5086727;28;20447;-51
2022/01/05 09:51:42;;;;;;;4.00;2.50;;;;;;;;;;5067593;28;20428;-53
2022/01/05 09:54:09;;;;;;;4.80;1.77;;;;;;;;;;5083749;28;20935;-51
2022/01/05 09:56:35;;;;;;;2.73;2.13;;;;;;;;;;5025151;28;20470;-52
2022/01/05 09:59:02;;;;;;;6.33;1.73;;;;;;;;;;5083954;28;20967;-52
2022/01/05 10:01:31;;;;;;;4.23;2.30;;;;;;;;;;5081641;28;20587;-52
2022/01/05 10:03:58;;;;;;;4.53;1.80;;;;;;;;;;5087015;28;20471;-51
2022/01/05 10:06:24;;;;;;;7.03;1.83;;;;;;;;;;5085070;28;20476;-51
2022/01/05 10:08:50;;;;;;;8.50;2.10;;;;;;;;;;5094282;28;20432;-51
2022/01/05 10:11:15;;;;;;;7.03;2.27;;;;;;;;;;5084913;28;20427;-51
2022/01/05 10:13:42;;;;;;;3.43;1.47;;;;;;;;;;5098131;28;20475;-51
2022/01/05 10:16:08;;;;;;;4.60;1.97;;;;;;;;;;5061312;28;20189;-51
2022/01/05 10:18:40;;;;;;;2.70;1.43;;;;;;;;;;5082029;28;20500;-50
2022/01/05 10:21:06;;;;;;;3.00;1.67;;;;;;;;;;5084642;28;20436;-55
2022/01/05 10:23:40;;;;;;;2.70;1.63;;;;;;;;;;5084114;28;20512;-50
2022/01/05 10:26:22;;;;;;;3.80;1.87;;;;;;;;;;5056272;28;22847;-52
2022/01/05 10:28:48;;;;;;;3.83;1.40;;;;;;;;;;5085558;28;20489;-52
2022/01/05 10:31:18;;;;;;;9.60;1.97;;;;;;;;;;5047536;28;20444;-52
2022/01/05 10:33:44;;;;;;;5.90;3.70;;;;;;;;;;5095133;28;20553;-51
2022/01/05 10:36:09;;;;;;;3.90;1.90;;;;;;;;;;5070947;28;20973;-52
2022/01/05 10:38:35;;;;;;;7.53;1.93;;;;;;;;;;5083389;28;20472;-52
2022/01/05 10:41:17;;;;;;;5.90;1.70;;;;;;;;;;5064292;28;21109;-51
2022/01/05 10:44:02;;;;;;;6.27;2.10;;;;;;;;;;5084163;28;20193;-51
2022/01/05 10:46:37;;;;;;;2.30;2.07;;;;;;;;;;5060086;28;21312;-51
2022/01/05 10:49:04;;;;;;;2.50;1.90;;;;;;;;;;5087802;28;20432;-51
2022/01/05 10:51:30;;;;;;;1.73;1.20;;;;;;;;;;5079627;28;20472;-51
2022/01/05 10:54:15;;;;;;;5.37;2.00;;;;;;;;;;5086249;28;20428;-50
2022/01/05 10:56:41;;;;;;;1.80;1.30;;;;;;;;;;5057687;28;20436;-51
2022/01/05 10:59:07;;;;;;;10.90;1.60;;;;;;;;;;5081376;28;20527;-51
2022/01/05 11:01:33;;;;;;;10.63;1.93;;;;;;;;;;5042789;28;20476;-52
2022/01/05 11:03:59;;;;;;;4.00;1.47;;;;;;;;;;5082681;28;20570;-51
2022/01/05 11:06:25;;;;;;;3.40;1.77;;;;;;;;;;5082086;28;21074;-52
2022/01/05 11:08:55;;;;;;;4.83;1.73;;;;;;;;;;5085503;28;20560;-51
2022/01/05 11:11:40;;;;;;;1.60;1.20;;;;;;;;;;5058692;28;22957;-51
2022/01/05 11:14:07;;;;;;;6.17;1.73;;;;;;;;;;5083902;28;20460;-50
2022/01/05 11:16:33;;;;;;;6.10;2.33;;;;;;;;;;5059423;28;20965;-51
2022/01/05 11:19:11;;;;;;;5.03;1.57;;;;;;;;;;5086325;28;20448;-50
2022/01/05 11:21:38;;;;;;;7.50;2.00;;;;;;;;;;5078776;28;20475;-50
2022/01/05 11:24:05;;;;;;;3.90;1.80;;;;;;;;;;5084556;28;20466;-51
2022/01/05 11:26:31;;;;;;;5.80;2.40;;;;;;;;;;5082922;28;20644;-52
2022/01/05 11:28:56;;;;;;;2.50;1.60;;;;;;;;;;5082241;28;20441;-50
2022/01/05 11:31:22;;;;;;;2.80;1.77;;;;;;;;;;5029793;28;20513;-51
2022/01/05 11:33:48;;;;;;;3.07;1.67;;;;;;;;;;5093539;28;20181;-50
2022/01/05 11:36:14;;;;;;;5.73;1.37;;;;;;;;;;5051345;28;20441;-51
2022/01/05 11:38:40;;;;;;;4.50;1.57;;;;;;;;;;5077260;28;20474;-51
2022/01/05 11:41:06;;;;;;;3.10;1.47;;;;;;;;;;5087055;28;20421;-51
2022/01/05 11:43:35;;;;;;;6.10;1.90;;;;;;;;;;5069110;28;20586;-51
2022/01/05 11:46:17;;;;;;;7.23;2.87;;;;;;;;;;5057333;28;21143;-51
2022/01/05 11:49:21;;;;;;;4.50;1.50;;;;;;;;;;5088346;28;20447;-51
2022/01/05 11:51:48;;;;;;;4.57;1.57;;;;;;;;;;5025618;28;20480;-52
2022/01/05 11:54:24;;;;;;;5.30;2.07;;;;;;;;;;5086633;28;20443;-53
2022/01/05 11:56:51;;;;;;;4.30;1.70;;;;;;;;;;5072469;28;20439;-52
2022/01/05 11:59:33;;;;;;;2.80;1.67;;;;;;;;;;5093228;28;20431;-51
2022/01/05 12:01:59;;;;;;;3.70;1.73;;;;;;;;;;5045578;28;20462;-52
2022/01/05 12:04:25;;;;;;;5.53;1.97;;;;;;;;;;5077703;28;20490;-51
2022/01/05 12:06:53;;;;;;;6.73;2.30;;;;;;;;;;5082154;28;20483;-52
2022/01/05 12:09:20;;;;;;;3.60;2.10;;;;;;;;;;5087579;28;20436;-52
2022/01/05 12:11:46;;;;;;;1.83;1.57;;;;;;;;;;5078596;28;20508;-51
2022/01/05 12:14:21;;;;;;;4.67;1.93;;;;;;;;;;5083777;28;20472;-51
2022/01/05 12:16:56;;;;;;;5.67;2.07;;;;;;;;;;5059178;28;20500;-52
2022/01/05 12:19:22;;;;;;;12.23;1.93;;;;;;;;;;5082477;28;21316;-51
2022/01/05 12:21:49;;;;;;;3.07;1.77;;;;;;;;;;5056755;28;20439;-52
2022/01/05 12:24:15;;;;;;;5.60;1.67;;;;;;;;;;5086026;28;20505;-51
2022/01/05 12:26:41;;;;;;;5.80;1.93;;;;;;;;;;5078735;28;21014;-51
2022/01/05 12:29:07;;;;;;;2.70;1.60;;;;;;;;;;5078501;28;20460;-52
2022/01/05 12:31:48;;;;;;;2.70;1.40;;;;;;;;;;5085905;28;20444;-52
2022/01/05 12:34:14;;;;;;;2.97;1.57;;;;;;;;;;5092757;28;20451;-51
2022/01/05 12:36:42;;;;;;;2.60;1.50;;;;;;;;;;5022983;28;20444;-51
2022/01/05 12:39:08;;;;;;;7.23;3.63;;;;;;;;;;5081629;28;20849;-52
2022/01/05 12:41:35;;;;;;;2.33;1.57;;;;;;;;;;5079170;28;20441;-52
2022/01/05 12:44:04;;;;;;;10.13;1.70;;;;;;;;;;5080734;28;20593;-51
2022/01/05 12:46:34;;;;;;;3.20;1.33;;;;;;;;;;5080267;28;23135;-50
2022/01/05 12:49:01;;;;;;;4.63;1.93;;;;;;;;;;5081546;28;20436;-51
2022/01/05 12:51:30;;;;;;;5.80;1.73;;;;;;;;;;5060936;28;20576;-51
2022/01/05 12:54:00;;;;;;;2.17;1.30;;;;;;;;;;5088025;28;22482;-51
2022/01/05 12:56:30;;;;;;;1.50;1.20;;;;;;;;;;5069629;28;22245;-52
2022/01/05 12:58:57;;;;;;;6.47;1.60;;;;;;;;;;5091124;28;20451;-52
2022/01/05 13:01:23;;;;;;;7.67;1.93;;;;;;;;;;5080566;28;20440;-52
2022/01/05 13:03:49;;;;;;;1.77;1.20;;;;;;;;;;5082155;28;20492;-51
2022/01/05 13:06:25;;;;;;;2.73;1.70;;;;;;;;;;5039845;28;21533;-52
2022/01/05 13:08:52;;;;;;;3.93;1.77;;;;;;;;;;5084146;28;20429;-52
2022/01/05 13:11:33;;;;;;;4.37;1.53;;;;;;;;;;5073332;28;21213;-52
2022/01/05 13:14:14;;;;;;;9.90;2.60;;;;;;;;;;5080790;28;20462;-51
2022/01/05 13:16:43;;;;;;;3.97;2.20;;;;;;;;;;5080844;28;20465;-51
2022/01/05 13:19:16;;;;;;;3.50;1.80;;;;;;;;;;5083778;28;20431;-52
2022/01/05 13:21:45;;;;;;;3.50;1.77;;;;;;;;;;5048009;28;20436;-51
2022/01/05 13:24:11;;;;;;;6.37;2.60;;;;;;;;;;5084322;28;20470;-52
2022/01/05 13:26:37;;;;;;;5.70;1.20;;;;;;;;;;5055528;28;20482;-52
2022/01/05 13:29:22;;;;;;;3.77;1.60;;;;;;;;;;5086234;28;20427;-52
2022/01/05 13:31:54;;;;;;;1.70;1.23;;;;;;;;;;5079195;28;20971;-51
2022/01/05 13:34:28;;;;;;;6.43;1.53;;;;;;;;;;5082491;28;20446;-51
2022/01/05 13:36:54;;;;;;;3.53;1.83;;;;;;;;;;5079826;28;20464;-51
2022/01/05 13:39:35;;;;;;;4.03;1.40;;;;;;;;;;5089937;28;20530;-52
2022/01/05 13:42:01;;;;;;;4.43;1.53;;;;;;;;;;5043020;28;20463;-52
2022/01/05 13:44:27;;;;;;;4.40;1.30;;;;;;;;;;5090421;28;20523;-51
2022/01/05 13:46:53;;;;;;;1.40;1.30;;;;;;;;;;5065072;28;20557;-52
2022/01/05 13:49:19;;;;;;;11.90;2.10;;;;;;;;;;5088325;28;20510;-51
2022/01/05 13:52:04;;;;;;;5.70;1.63;;;;;;;;;;5078317;28;20436;-52
2022/01/05 13:54:30;;;;;;;1.80;1.30;;;;;;;;;;5085878;28;20523;-51
2022/01/05 13:56:56;;;;;;;6.43;2.50;;;;;;;;;;5060500;28;20768;-52
2022/01/05 13:59:22;;;;;;;3.27;1.70;;;;;;;;;;5088143;28;20432;-51
2022/01/05 14:01:57;;;;;;;6.47;2.00;;;;;;;;;;5081827;28;20445;-51
2022/01/05 14:04:23;;;;;;;9.70;1.83;;;;;;;;;;5067007;28;22027;-51
2022/01/05 14:06:59;;;;;;;3.40;1.73;;;;;;;;;;5076499;28;20476;-51
2022/01/05 14:09:32;;;;;;;5.83;1.77;;;;;;;;;;5082213;28;20560;-52
2022/01/05 14:11:58;;;;;;;5.80;1.70;;;;;;;;;;5080346;28;20953;-51
2022/01/05 14:14:25;;;;;;;2.87;1.20;;;;;;;;;;5041925;28;20999;-53
2022/01/05 14:16:51;;;;;;;5.87;1.47;;;;;;;;;;5072670;28;20452;-52
2022/01/05 14:19:17;;;;;;;9.20;2.00;;;;;;;;;;5082990;28;20455;-51
2022/01/05 14:21:49;;;;;;;2.17;1.40;;;;;;;;;;5084252;28;20571;-52
2022/01/05 14:24:16;;;;;;;3.27;1.33;;;;;;;;;;5075594;28;20540;-51
2022/01/05 14:26:42;;;;;;;2.40;1.50;;;;;;;;;;5074463;28;20485;-52
2022/01/05 14:29:08;;;;;;;6.90;1.50;;;;;;;;;;5076617;28;20562;-52
2022/01/05 14:31:38;;;;;;;1.90;1.67;;;;;;;;;;5074539;28;21083;-51
2022/01/05 14:34:04;;;;;;;8.63;1.97;;;;;;;;;;5090746;28;21004;-51
2022/01/05 14:36:37;;;;;;;4.40;1.37;;;;;;;;;;5092468;28;20441;-51
2022/01/05 14:39:10;;;;;;;5.43;2.10;;;;;;;;;;5088431;28;20436;-51
2022/01/05 14:41:39;;;;;;;2.13;1.37;;;;;;;;;;5079365;28;20451;-51
2022/01/05 14:44:25;;;;;;;4.03;1.50;;;;;;;;;;5069097;28;21003;-51
2022/01/05 14:46:52;;;;;;;3.83;1.60;;;;;;;;;;5077011;28;20482;-51
2022/01/05 14:49:18;;;;;;;3.17;1.37;;;;;;;;;;5086091;28;22729;-51
2022/01/05 14:51:44;;;;;;;3.70;1.43;;;;;;;;;;5093620;28;20428;-52